createdAt,value
2019-05-22T00:00:51.859Z,6.03
2019-05-22T00:03:24.853Z,6.53
2019-05-22T00:05:58.182Z,5.60
2019-05-22T00:08:29.206Z,7.27
2019-05-22T00:11:01.762Z,5.40
2019-05-22T00:13:31.842Z,5.83
2019-05-22T00:16:04.578Z,6.10
2019-05-22T00:18:35.806Z,7.97
2019-05-22T00:21:06.800Z,5.37
2019-05-22T00:23:38.674Z,7.27
2019-05-22T00:26:11.288Z,5.37
2019-05-22T00:28:42.754Z,4.83
2019-05-22T00:31:15.471Z,6.43
2019-05-22T00:33:45.802Z,6.53
2019-05-22T00:36:17.576Z,7.20
2019-05-22T00:38:47.815Z,8.63
2019-05-22T00:41:20.770Z,6.70
2019-05-22T00:43:51.559Z,9.00
2019-05-22T00:46:23.401Z,6.47
2019-05-22T00:48:54.452Z,5.37
2019-05-22T00:51:42.915Z,9.77
2019-05-22T00:54:33.251Z,7.60
2019-05-22T00:57:11.095Z,7.10
2019-05-22T00:59:42.563Z,6.17
2019-05-22T01:02:15.329Z,5.73
2019-05-22T01:04:47.047Z,6.27
2019-05-22T01:07:17.774Z,10.57
2019-05-22T01:09:51.976Z,6.13
2019-05-22T01:12:31.923Z,8.10
2019-05-22T01:15:08.202Z,5.93
2019-05-22T01:17:40.758Z,7.30
2019-05-22T01:20:16.554Z,9.87
2019-05-22T01:22:49.646Z,6.93
2019-05-22T01:25:24.341Z,6.33
2019-05-22T01:27:56.285Z,6.93
2019-05-22T01:30:46.017Z,8.97
2019-05-22T01:33:21.446Z,7.00
2019-05-22T01:36:12.564Z,7.57
2019-05-22T01:38:42.954Z,9.87
2019-05-22T01:41:21.012Z,8.87
2019-05-22T01:43:54.329Z,6.70
2019-05-22T01:46:28.391Z,8.73
2019-05-22T01:49:03.132Z,8.47
2019-05-22T01:51:34.196Z,6.77
2019-05-22T01:54:06.339Z,8.80
2019-05-22T01:56:36.487Z,5.13
2019-05-22T01:59:08.429Z,8.07
2019-05-22T02:01:40.261Z,6.13
2019-05-22T02:04:14.819Z,5.40
2019-05-22T02:06:45.203Z,6.17
2019-05-22T02:09:33.892Z,7.60
2019-05-22T02:12:10.406Z,6.37
2019-05-22T02:14:44.531Z,12.23
2019-05-22T02:17:18.374Z,9.07
2019-05-22T02:19:50.242Z,5.70
2019-05-22T02:22:20.606Z,6.37
2019-05-22T02:24:51.841Z,5.63
2019-05-22T02:27:24.062Z,6.63
2019-05-22T02:29:56.115Z,5.53
2019-05-22T02:32:28.638Z,9.17
2019-05-22T02:35:01.780Z,6.60
2019-05-22T02:37:33.834Z,7.60
2019-05-22T02:40:05.035Z,5.53
2019-05-22T02:42:36.980Z,9.13
2019-05-22T02:45:07.549Z,7.13
2019-05-22T02:47:38.886Z,10.43
2019-05-22T02:50:11.284Z,5.47
2019-05-22T02:52:41.942Z,9.17
2019-05-22T02:55:12.279Z,8.40
2019-05-22T02:57:43.111Z,6.03
2019-05-22T03:00:14.527Z,5.90
2019-05-22T03:02:51.068Z,5.37
2019-05-22T03:05:22.721Z,5.60
2019-05-22T03:07:53.723Z,6.10
2019-05-22T03:10:26.738Z,6.97
2019-05-22T03:12:58.398Z,5.60
2019-05-22T03:15:29.818Z,7.00
2019-05-22T03:18:04.807Z,6.63
2019-05-22T03:20:37.552Z,5.50
2019-05-22T03:23:39.349Z,7.70
2019-05-22T03:26:11.125Z,4.30
2019-05-22T03:28:41.997Z,3.90
2019-05-22T03:31:13.708Z,5.20
2019-05-22T03:33:44.375Z,4.63
2019-05-22T03:36:21.049Z,3.50
2019-05-22T03:38:51.767Z,5.60
2019-05-22T03:41:22.990Z,5.80
2019-05-22T03:43:55.643Z,8.70
2019-05-22T03:46:34.227Z,3.50
2019-05-22T03:49:05.510Z,3.37
2019-05-22T03:51:36.103Z,3.73
2019-05-22T03:54:06.467Z,4.13
2019-05-22T03:56:40.944Z,3.63
2019-05-22T03:59:11.992Z,3.40
2019-05-22T04:01:44.831Z,3.80
2019-05-22T04:04:35.670Z,3.57
2019-05-22T04:07:08.513Z,5.83
2019-05-22T04:09:40.277Z,3.77
2019-05-22T04:12:11.521Z,3.67
2019-05-22T04:14:43.373Z,4.80
2019-05-22T04:17:14.645Z,6.20
2019-05-22T04:19:50.333Z,4.27
2019-05-22T04:22:18.125Z,9.97
2019-05-22T04:24:48.973Z,4.30
2019-05-22T04:27:20.365Z,7.23
2019-05-22T04:29:52.528Z,7.47
2019-05-22T04:32:37.279Z,7.50
2019-05-22T04:35:11.640Z,4.57
2019-05-22T04:37:43.055Z,2.60
2019-05-22T04:40:53.272Z,5.97
2019-05-22T04:43:26.537Z,3.07
2019-05-22T04:45:59.214Z,8.30
2019-05-22T04:48:31.345Z,5.57
2019-05-22T04:51:25.184Z,6.13
2019-05-22T04:53:57.529Z,3.23
2019-05-22T04:56:28.563Z,7.57
2019-05-22T04:59:01.892Z,4.10
2019-05-22T05:01:32.010Z,3.67
2019-05-22T05:04:03.016Z,6.43
2019-05-22T05:06:37.372Z,3.30
2019-05-22T05:09:10.063Z,5.47
2019-05-22T05:11:40.625Z,4.67
2019-05-22T05:14:10.827Z,4.37
2019-05-22T05:16:41.148Z,3.80
2019-05-22T05:19:11.345Z,3.80
2019-05-22T05:21:41.687Z,7.70
2019-05-22T05:24:12.249Z,2.90
2019-05-22T05:26:43.482Z,4.20
2019-05-22T05:29:26.846Z,2.33
2019-05-22T05:31:58.902Z,5.97
2019-05-22T05:34:57.358Z,6.67
2019-05-22T05:37:27.556Z,4.10
2019-05-22T05:40:39.219Z,5.13
2019-05-22T05:43:11.886Z,4.70
2019-05-22T05:45:44.383Z,3.27
2019-05-22T05:48:28.260Z,2.77
2019-05-22T05:51:40.395Z,6.27
2019-05-22T05:54:15.958Z,5.47
2019-05-22T05:56:48.546Z,4.17
2019-05-22T05:59:21.853Z,3.83
2019-05-22T06:02:00.098Z,3.93
2019-05-22T06:04:35.879Z,4.17
2019-05-22T06:07:25.501Z,2.93
2019-05-22T06:10:36.087Z,4.70
2019-05-22T06:13:06.880Z,3.07
2019-05-22T06:15:49.810Z,3.63
2019-05-22T06:18:35.422Z,1.80
2019-05-22T06:21:07.337Z,2.53
2019-05-22T06:24:23.669Z,2.30
2019-05-22T06:27:22.012Z,5.37
2019-05-22T06:29:59.251Z,4.67
2019-05-22T06:33:17.044Z,3.40
2019-05-22T06:35:48.728Z,3.83
2019-05-22T06:38:57.447Z,3.20
2019-05-22T06:41:37.712Z,9.57
2019-05-22T06:44:43.506Z,4.93
2019-05-22T06:47:20.017Z,2.27
2019-05-22T06:50:00.517Z,2.63
2019-05-22T06:52:30.693Z,3.63
2019-05-22T06:55:01.647Z,2.27
2019-05-22T06:57:34.850Z,2.20
2019-05-22T07:00:15.165Z,5.17
2019-05-22T07:02:45.506Z,4.73
2019-05-22T07:05:16.144Z,3.67
2019-05-22T07:07:47.028Z,6.13
2019-05-22T07:10:17.413Z,3.07
2019-05-22T07:12:50.706Z,5.50
2019-05-22T07:15:31.147Z,2.57
2019-05-22T07:18:03.041Z,5.73
2019-05-22T07:20:35.750Z,5.83
2019-05-22T07:23:09.226Z,4.50
2019-05-22T07:25:41.769Z,5.07
2019-05-22T07:28:14.426Z,4.07
2019-05-22T07:30:45.643Z,10.73
2019-05-22T07:33:17.962Z,4.93
2019-05-22T07:36:07.971Z,4.40
2019-05-22T07:38:21.002Z,5.93
2019-05-22T07:40:51.919Z,6.33
2019-05-22T07:43:23.736Z,2.53
2019-05-22T07:45:55.066Z,4.20
2019-05-22T07:48:27.490Z,2.60
2019-05-22T07:50:58.161Z,3.53
2019-05-22T07:53:29.078Z,4.77
2019-05-22T07:56:02.617Z,2.77
2019-05-22T07:58:34.616Z,1.47
2019-05-22T08:01:04.866Z,3.77
2019-05-22T08:03:35.879Z,3.93
2019-05-22T08:06:08.230Z,4.63
2019-05-22T08:08:39.900Z,3.47
2019-05-22T08:11:11.383Z,3.23
2019-05-22T08:13:43.555Z,2.63
2019-05-22T08:16:14.243Z,3.20
2019-05-22T08:18:44.827Z,4.30
2019-05-22T08:21:15.866Z,3.97
2019-05-22T08:23:46.716Z,2.57
2019-05-22T08:26:18.963Z,4.67
2019-05-22T08:28:49.435Z,4.33
2019-05-22T08:31:22.970Z,4.70
2019-05-22T08:33:53.514Z,3.47
2019-05-22T08:36:23.999Z,1.60
2019-05-22T08:38:54.874Z,4.67
2019-05-22T08:41:30.959Z,2.00
2019-05-22T08:44:15.285Z,3.30
2019-05-22T08:46:33.742Z,3.63
2019-05-22T08:49:04.932Z,2.33
2019-05-22T08:51:35.164Z,3.80
2019-05-22T08:54:06.913Z,1.53
2019-05-22T08:56:40.468Z,3.70
2019-05-22T08:59:19.616Z,3.70
2019-05-22T09:01:42.726Z,3.20
2019-05-22T09:04:12.974Z,5.17
2019-05-22T09:06:43.282Z,1.83
2019-05-22T09:09:13.956Z,2.70
2019-05-22T09:11:44.181Z,2.27
2019-05-22T09:14:14.846Z,1.70
2019-05-22T09:16:45.823Z,1.20
2019-05-22T09:19:16.296Z,1.20
2019-05-22T09:21:47.185Z,2.17
2019-05-22T09:24:19.662Z,2.83
2019-05-22T09:26:50.403Z,5.50
2019-05-22T09:29:21.914Z,2.60
2019-05-22T09:31:52.339Z,3.57
2019-05-22T09:34:22.699Z,3.40
2019-05-22T09:36:53.118Z,1.90
2019-05-22T09:39:23.318Z,2.20
2019-05-22T09:41:53.493Z,4.07
2019-05-22T09:44:23.703Z,2.53
2019-05-22T09:46:54.840Z,3.60
2019-05-22T09:49:25.390Z,3.20
2019-05-22T09:51:56.282Z,4.30
2019-05-22T09:54:26.966Z,1.77
2019-05-22T09:56:57.446Z,1.70
2019-05-22T09:59:27.790Z,2.83
2019-05-22T10:01:58.062Z,6.30
2019-05-22T10:04:28.270Z,3.87
2019-05-22T10:06:58.529Z,3.17
2019-05-22T10:09:29.115Z,1.30
2019-05-22T10:11:59.478Z,3.17
2019-05-22T10:14:29.858Z,4.27
2019-05-22T10:16:59.902Z,2.80
2019-05-22T10:19:30.990Z,2.70
2019-05-22T10:22:01.826Z,4.30
2019-05-22T10:24:34.516Z,7.53
2019-05-22T10:27:05.433Z,2.57
2019-05-22T10:29:36.231Z,2.90
2019-05-22T10:32:06.699Z,1.40
2019-05-22T10:34:37.129Z,2.73
2019-05-22T10:37:08.464Z,3.57
2019-05-22T10:39:40.172Z,3.43
2019-05-22T10:42:10.610Z,4.57
2019-05-22T10:44:41.050Z,3.13
2019-05-22T10:47:11.233Z,1.60
2019-05-22T10:49:42.109Z,4.87
2019-05-22T10:52:12.731Z,3.37
2019-05-22T10:54:42.958Z,1.73
2019-05-22T10:57:13.832Z,1.37
2019-05-22T10:59:44.113Z,2.90
2019-05-22T11:02:14.967Z,5.10
2019-05-22T11:04:45.558Z,2.20
2019-05-22T11:07:15.914Z,3.33
2019-05-22T11:09:46.716Z,2.80
2019-05-22T11:12:17.149Z,3.77
2019-05-22T11:14:47.740Z,1.53
2019-05-22T11:17:18.515Z,2.00
2019-05-22T11:19:49.374Z,2.53
2019-05-22T11:22:19.656Z,2.83
2019-05-22T11:24:50.915Z,2.10
2019-05-22T11:27:21.103Z,1.27
2019-05-22T11:29:52.609Z,2.50
2019-05-22T11:32:23.327Z,5.53
2019-05-22T11:34:53.999Z,1.90
2019-05-22T11:37:24.197Z,2.70
2019-05-22T11:39:54.815Z,2.50
2019-05-22T11:42:25.716Z,1.87
2019-05-22T11:44:56.347Z,2.30
2019-05-22T11:47:27.506Z,2.03
2019-05-22T11:49:57.680Z,4.83
2019-05-22T11:52:29.864Z,1.60
2019-05-22T11:55:00.378Z,2.87
2019-05-22T11:57:31.415Z,2.47
2019-05-22T12:00:01.955Z,3.00
2019-05-22T12:02:32.518Z,2.47
2019-05-22T12:05:03.127Z,2.47
2019-05-22T12:07:33.372Z,2.70
2019-05-22T12:10:04.386Z,3.03
2019-05-22T12:12:35.561Z,7.50
2019-05-22T12:15:07.143Z,1.60
2019-05-22T12:17:39.094Z,1.50
2019-05-22T12:20:11.005Z,2.37
2019-05-22T12:22:42.366Z,3.33
2019-05-22T12:25:13.860Z,1.40
2019-05-22T12:27:44.729Z,1.40
2019-05-22T12:30:15.933Z,4.03
2019-05-22T12:32:46.477Z,5.27
2019-05-22T12:35:17.771Z,4.03
2019-05-22T12:37:48.272Z,1.50
2019-05-22T12:40:20.224Z,3.37
2019-05-22T12:42:52.191Z,1.93
2019-05-22T12:45:27.359Z,1.37
2019-05-22T12:47:59.799Z,2.70
2019-05-22T12:50:30.690Z,1.40
2019-05-22T12:53:04.268Z,1.30
2019-05-22T12:55:34.552Z,0.87
2019-05-22T12:58:06.415Z,1.10
2019-05-22T13:00:37.182Z,1.40
2019-05-22T13:03:09.091Z,0.90
2019-05-22T13:05:40.018Z,2.70
2019-05-22T13:08:11.747Z,1.50
2019-05-22T13:10:42.011Z,2.53
2019-05-22T13:13:12.548Z,1.30
2019-05-22T13:15:43.323Z,6.47
2019-05-22T13:18:17.162Z,0.93
2019-05-22T13:20:49.889Z,0.93
2019-05-22T13:23:22.572Z,2.73
2019-05-22T13:25:53.648Z,5.27
2019-05-22T13:28:29.711Z,1.67
2019-05-22T13:31:01.801Z,2.00
2019-05-22T13:33:33.157Z,4.00
2019-05-22T13:36:03.483Z,1.20
2019-05-22T13:38:33.750Z,2.20
2019-05-22T13:41:04.620Z,2.40
2019-05-22T13:43:35.888Z,1.50
2019-05-22T13:46:06.662Z,3.37
2019-05-22T13:48:36.855Z,2.13
2019-05-22T13:51:09.800Z,2.27
2019-05-22T13:53:42.594Z,2.20
2019-05-22T13:56:13.487Z,2.00
2019-05-22T13:58:44.597Z,3.90
2019-05-22T14:01:15.168Z,3.00
2019-05-22T14:03:45.368Z,8.73
2019-05-22T14:06:15.432Z,6.10
2019-05-22T14:08:46.095Z,2.53
2019-05-22T14:11:17.005Z,1.30
2019-05-22T14:13:47.457Z,4.03
2019-05-22T14:16:17.746Z,1.80
2019-05-22T14:18:47.984Z,6.40
2019-05-22T14:21:18.390Z,2.03
2019-05-22T14:23:48.691Z,3.50
2019-05-22T14:26:19.006Z,2.20
2019-05-22T14:28:50.082Z,3.53
2019-05-22T14:31:20.651Z,1.27
2019-05-22T14:33:51.866Z,3.93
2019-05-22T14:36:22.162Z,6.93
2019-05-22T14:38:53.138Z,3.83
2019-05-22T14:41:23.415Z,7.40
2019-05-22T14:43:53.582Z,1.80
2019-05-22T14:46:23.905Z,2.90
2019-05-22T14:48:54.909Z,2.13
2019-05-22T14:51:26.823Z,2.80
2019-05-22T14:53:58.781Z,2.07
2019-05-22T14:56:30.463Z,3.90
2019-05-22T14:59:02.031Z,2.53
2019-05-22T15:01:32.319Z,2.83
2019-05-22T15:04:02.870Z,3.10
2019-05-22T15:06:33.935Z,1.63
2019-05-22T15:09:06.345Z,1.07
2019-05-22T15:11:36.771Z,1.30
2019-05-22T15:14:07.047Z,3.90
2019-05-22T15:16:37.145Z,3.50
2019-05-22T15:19:07.784Z,4.43
2019-05-22T15:21:38.328Z,2.07
2019-05-22T15:24:09.447Z,2.40
2019-05-22T15:26:41.721Z,3.43
2019-05-22T15:29:12.051Z,1.30
2019-05-22T15:31:42.172Z,2.30
2019-05-22T15:34:14.691Z,2.37
2019-05-22T15:36:45.868Z,1.40
2019-05-22T15:39:20.665Z,1.63
2019-05-22T15:41:51.462Z,0.93
2019-05-22T15:44:22.397Z,2.13
2019-05-22T15:46:52.628Z,3.23
2019-05-22T15:49:22.987Z,3.20
2019-05-22T15:51:53.744Z,2.70
2019-05-22T15:54:24.934Z,2.93
2019-05-22T15:56:57.317Z,6.70
2019-05-22T15:59:29.726Z,1.40
2019-05-22T16:02:02.263Z,1.87
2019-05-22T16:04:32.572Z,1.53
2019-05-22T16:07:04.980Z,2.13
2019-05-22T16:09:35.808Z,5.00
2019-05-22T16:12:06.256Z,4.43
2019-05-22T16:14:38.055Z,2.83
2019-05-22T16:17:09.893Z,3.30
2019-05-22T16:19:40.941Z,6.27
2019-05-22T16:22:11.270Z,1.27
2019-05-22T16:24:42.063Z,1.43
2019-05-22T16:27:14.256Z,1.23
2019-05-22T16:29:45.617Z,1.90
2019-05-22T16:32:19.155Z,1.53
2019-05-22T16:34:49.748Z,1.63
2019-05-22T16:37:20.860Z,3.60
2019-05-22T16:39:51.110Z,2.40
2019-05-22T16:42:21.642Z,1.13
2019-05-22T16:44:52.507Z,4.10
2019-05-22T16:47:22.819Z,3.00
2019-05-22T16:49:54.655Z,1.97
2019-05-22T16:52:28.400Z,2.30
2019-05-22T16:54:59.823Z,1.37
2019-05-22T16:57:31.442Z,4.17
2019-05-22T17:00:02.151Z,3.53
2019-05-22T17:02:36.619Z,2.60
2019-05-22T17:05:08.637Z,2.23
2019-05-22T17:07:39.872Z,1.70
2019-05-22T17:10:11.671Z,2.43
2019-05-22T17:12:43.708Z,2.83
2019-05-22T17:15:15.792Z,3.47
2019-05-22T17:17:46.900Z,2.17
2019-05-22T17:20:20.618Z,1.53
2019-05-22T17:22:51.390Z,2.50
2019-05-22T17:25:21.854Z,1.40
2019-05-22T17:27:53.388Z,2.03
2019-05-22T17:30:25.856Z,2.40
2019-05-22T17:32:57.430Z,1.17
2019-05-22T17:35:29.524Z,2.20
2019-05-22T17:38:00.061Z,1.47
2019-05-22T17:40:31.943Z,1.97
2019-05-22T17:43:04.920Z,8.57
2019-05-22T17:45:36.452Z,1.40
2019-05-22T17:48:07.986Z,1.70
2019-05-22T17:50:39.375Z,1.93
2019-05-22T17:53:10.127Z,1.67
2019-05-22T17:55:40.872Z,1.57
2019-05-22T17:58:11.664Z,3.37
2019-05-22T18:00:46.532Z,2.43
2019-05-22T18:03:17.616Z,2.13
2019-05-22T18:05:48.731Z,3.60
2019-05-22T18:08:20.391Z,2.87
2019-05-22T18:10:51.302Z,1.90
2019-05-22T18:13:22.359Z,2.23
2019-05-22T18:15:56.462Z,3.20
2019-05-22T18:18:26.945Z,3.37
2019-05-22T18:20:57.164Z,2.90
2019-05-22T18:23:27.627Z,3.70
2019-05-22T18:25:57.822Z,2.87
2019-05-22T18:28:28.298Z,2.93
2019-05-22T18:30:58.652Z,2.67
2019-05-22T18:33:28.935Z,4.07
2019-05-22T18:35:59.282Z,5.33
2019-05-22T18:38:29.490Z,2.13
2019-05-22T18:40:59.661Z,4.60
2019-05-22T18:43:29.854Z,3.73
2019-05-22T18:46:00.377Z,8.93
2019-05-22T18:48:33.082Z,4.30
2019-05-22T18:51:04.098Z,7.23
2019-05-22T18:53:34.640Z,4.57
2019-05-22T18:56:06.782Z,7.00
2019-05-22T18:58:37.322Z,3.43
2019-05-22T19:01:08.827Z,4.87
2019-05-22T19:03:39.120Z,7.40
2019-05-22T19:06:09.856Z,4.30
2019-05-22T19:08:40.503Z,6.33
2019-05-22T19:11:13.867Z,4.50
2019-05-22T19:13:44.224Z,5.63
2019-05-22T19:16:14.739Z,6.43
2019-05-22T19:18:45.278Z,10.80
2019-05-22T19:21:15.566Z,8.67
2019-05-22T19:23:45.761Z,6.57
2019-05-22T19:26:16.005Z,10.20
2019-05-22T19:28:46.463Z,8.10
2019-05-22T19:31:17.250Z,8.20
2019-05-22T19:33:47.430Z,9.33
2019-05-22T19:36:17.897Z,9.17
2019-05-22T19:38:48.553Z,9.67
2019-05-22T19:41:18.987Z,13.83
2019-05-22T19:43:49.830Z,7.60
2019-05-22T19:46:20.507Z,11.03
2019-05-22T19:48:50.793Z,9.57
2019-05-22T19:51:21.154Z,11.73
2019-05-22T19:53:51.427Z,11.13
2019-05-22T19:56:23.922Z,9.40
2019-05-22T19:58:53.813Z,7.50
2019-05-22T20:01:24.675Z,8.40
2019-05-22T20:03:55.951Z,10.20
2019-05-22T20:06:26.248Z,8.00
2019-05-22T20:08:57.273Z,12.00
2019-05-22T20:11:27.810Z,12.03
2019-05-22T20:13:58.461Z,9.03
2019-05-22T20:16:28.631Z,9.20
2019-05-22T20:19:00.539Z,7.70
2019-05-22T20:21:31.964Z,15.53
2019-05-22T20:24:02.778Z,10.57
2019-05-22T20:26:33.091Z,9.20
2019-05-22T20:29:04.898Z,7.53
2019-05-22T20:31:35.822Z,7.37
2019-05-22T20:34:06.895Z,7.73
2019-05-22T20:36:37.829Z,11.30
2019-05-22T20:39:09.930Z,9.83
2019-05-22T20:41:40.931Z,8.93
2019-05-22T20:44:12.045Z,11.07
2019-05-22T20:46:43.030Z,13.70
2019-05-22T20:49:14.320Z,8.63
2019-05-22T20:51:45.595Z,8.43
2019-05-22T20:54:17.058Z,8.70
2019-05-22T20:56:50.548Z,9.47
2019-05-22T20:59:21.659Z,12.10
2019-05-22T21:01:52.085Z,11.13
2019-05-22T21:04:24.667Z,10.20
2019-05-22T21:07:00.564Z,12.03
2019-05-22T21:09:31.535Z,10.53
2019-05-22T21:12:03.283Z,11.83
2019-05-22T21:14:33.991Z,11.07
2019-05-22T21:17:05.021Z,9.57
2019-05-22T21:19:36.218Z,11.40
2019-05-22T21:22:06.522Z,9.60
2019-05-22T21:24:37.371Z,9.13
2019-05-22T21:27:09.632Z,10.80
2019-05-22T21:29:39.807Z,13.60
2019-05-22T21:32:10.555Z,11.30
2019-05-22T21:34:41.574Z,9.77
2019-05-22T21:37:12.153Z,13.57
2019-05-22T21:39:43.301Z,9.93
2019-05-22T21:42:14.663Z,12.33
2019-05-22T21:44:45.199Z,10.40
2019-05-22T21:47:16.413Z,9.93
2019-05-22T21:49:47.870Z,9.07
2019-05-22T21:52:19.064Z,13.43
2019-05-22T21:54:49.692Z,10.00
2019-05-22T21:57:20.661Z,10.90
2019-05-22T21:59:51.327Z,9.53
2019-05-22T22:02:30.372Z,12.77
2019-05-22T22:05:00.625Z,8.30
2019-05-22T22:07:31.167Z,10.27
2019-05-22T22:10:01.326Z,11.93
2019-05-22T22:12:32.758Z,9.43
2019-05-22T22:15:04.716Z,10.47
2019-05-22T22:17:36.960Z,9.63
2019-05-22T22:20:07.624Z,12.60
2019-05-22T22:22:37.944Z,12.50
2019-05-22T22:25:10.038Z,11.63
2019-05-22T22:27:40.342Z,13.10
2019-05-22T22:30:22.565Z,12.93
2019-05-22T22:32:53.281Z,12.37
2019-05-22T22:35:23.568Z,13.17
2019-05-22T22:37:53.637Z,13.73
2019-05-22T22:40:27.239Z,11.53
2019-05-22T22:42:57.475Z,13.53
2019-05-22T22:45:41.435Z,14.30
2019-05-22T22:48:13.759Z,12.30
2019-05-22T22:50:44.966Z,11.37
2019-05-22T22:53:16.051Z,17.67
2019-05-22T22:55:48.266Z,14.93
2019-05-22T22:58:19.274Z,15.17
2019-05-22T23:00:52.116Z,13.63
2019-05-22T23:03:24.641Z,12.07
2019-05-22T23:05:55.826Z,18.33
2019-05-22T23:08:29.621Z,15.17
2019-05-22T23:10:59.949Z,12.17
2019-05-22T23:13:30.722Z,13.20
2019-05-22T23:16:02.459Z,14.23
2019-05-22T23:19:11.226Z,13.00
2019-05-22T23:21:40.303Z,12.73
2019-05-22T23:24:09.123Z,12.37
2019-05-22T23:26:40.492Z,13.67
2019-05-22T23:29:11.552Z,12.47
2019-05-22T23:31:42.964Z,11.57
2019-05-22T23:34:13.630Z,12.13
2019-05-22T23:36:45.308Z,10.87
2019-05-22T23:39:17.824Z,10.23
2019-05-22T23:41:48.832Z,11.57
2019-05-22T23:44:21.515Z,14.63
2019-05-22T23:46:52.525Z,12.90
2019-05-22T23:49:22.971Z,12.93
2019-05-22T23:51:53.835Z,15.90
2019-05-22T23:54:23.999Z,16.63
2019-05-22T23:56:54.262Z,18.33
2019-05-22T23:59:24.560Z,16.67
